CPM5 weather

Volk Airport
Tottenham, Ontario, Canada

Public forecast

Using degrees Celsius for public forecast. Weather courtesy of forecast.io.

METAR (pilot weather report)

Closest report is CFB Borden, 17.7 nm (32.7 km) NNW. Retrieved 2018/11/21 06:39 UTC (0 seconds ago):

CYBN 210639Z AUTO 21013KT 9SM SCT020 OVC057 M03/M05 A2984

TAF (pilot weather forecast)

Forecast is more than 12 hours old.

Closest forecast is CFB Borden, 17.7 nm (32.7 km) NNW. Retrieved 2018/11/20 00:36 UTC (1 day ago):

TAF TAF CYBN 202333Z 2100/2112 VRB03KT P6SM BKN030 OVC100 TEMPO 2100/2102 5SM -SN BKN020 FM210200 20008KT 2SM -SN BKN012 OVC020 TEMPO 2102/2108 6SM -SN BKN020 OVC080 BECMG 2104/2106 20012KT FM210800 25012KT 3SM -SN OVC015 FM211000 29015G25KT 4SM -SHSN BLSN BKN020 RMK FCST BASED ON AUTO OBS. NXT FCST BY 210600Z